createdAt,value
2018-06-02T00:02:06.962Z,31.90
2018-06-02T00:04:35.222Z,31.43
2018-06-02T00:07:03.493Z,29.77
2018-06-02T00:09:33.094Z,30.70
2018-06-02T00:12:01.637Z,29.80
2018-06-02T00:14:29.890Z,32.40
2018-06-02T00:16:58.165Z,29.93
2018-06-02T00:19:26.795Z,32.80
2018-06-02T00:21:56.398Z,31.67
2018-06-02T00:24:24.549Z,29.23
2018-06-02T00:26:54.142Z,31.63
2018-06-02T00:29:23.039Z,30.23
2018-06-02T00:31:52.406Z,30.30
2018-06-02T00:34:21.042Z,29.20
2018-06-02T00:36:49.316Z,31.20
2018-06-02T00:39:17.567Z,30.07
2018-06-02T00:41:45.827Z,27.27
2018-06-02T00:44:15.449Z,30.07
2018-06-02T00:46:45.083Z,29.87
2018-06-02T00:49:13.338Z,29.20
2018-06-02T00:51:42.937Z,29.77
2018-06-02T00:54:12.207Z,29.70
2018-06-02T00:56:41.806Z,27.60
2018-06-02T00:59:11.269Z,28.97
2018-06-02T01:01:39.798Z,30.07
2018-06-02T01:04:08.059Z,27.77
2018-06-02T01:06:36.309Z,26.17
2018-06-02T01:09:05.918Z,29.03
2018-06-02T01:11:35.399Z,27.20
2018-06-02T01:14:04.656Z,26.93
2018-06-02T01:16:33.286Z,28.40
2018-06-02T01:19:02.321Z,27.27
2018-06-02T01:21:30.575Z,27.57
2018-06-02T01:23:58.829Z,25.20
2018-06-02T01:26:27.101Z,25.17
2018-06-02T01:28:55.750Z,25.43
2018-06-02T01:31:24.002Z,25.50
2018-06-02T01:33:53.777Z,25.50
2018-06-02T01:36:22.034Z,24.83
2018-06-02T01:38:50.266Z,25.73
2018-06-02T01:41:19.306Z,25.57
2018-06-02T01:43:47.562Z,26.17
2018-06-02T01:46:15.819Z,26.07
2018-06-02T01:48:44.097Z,26.63
2018-06-02T01:51:12.963Z,29.60
2018-06-02T01:53:42.710Z,29.80
2018-06-02T01:56:10.986Z,29.10
2018-06-02T01:58:40.359Z,28.13
2018-06-02T02:01:09.355Z,29.37
2018-06-02T02:06:37.258Z,28.37
2018-06-02T02:09:06.850Z,29.00
2018-06-02T02:11:34.960Z,29.23
2018-06-02T02:14:03.218Z,29.17
2018-06-02T02:16:31.849Z,26.87
2018-06-02T02:19:01.226Z,28.43
2018-06-02T02:21:29.495Z,28.00
2018-06-02T02:23:59.084Z,31.43
2018-06-02T02:26:28.336Z,31.37
2018-06-02T02:28:56.599Z,32.00
2018-06-02T02:31:25.622Z,31.10
2018-06-02T02:33:53.859Z,29.10
2018-06-02T02:36:36.069Z,32.50
2018-06-02T02:39:06.236Z,34.47
2018-06-02T02:41:34.492Z,35.77
2018-06-02T02:44:02.753Z,35.13
2018-06-02T02:46:31.402Z,34.93
2018-06-02T02:49:00.427Z,35.47
2018-06-02T02:51:29.063Z,34.50
2018-06-02T02:53:57.323Z,36.87
2018-06-02T02:56:25.577Z,36.50
2018-06-02T02:58:55.441Z,35.80
2018-06-02T03:01:23.671Z,37.07
2018-06-02T03:03:51.941Z,37.97
2018-06-02T03:06:21.339Z,38.87
2018-06-02T03:08:49.574Z,39.20
2018-06-02T03:11:19.187Z,40.60
2018-06-02T03:13:48.658Z,40.40
2018-06-02T03:16:17.535Z,39.63
2018-06-02T03:18:46.560Z,41.37
2018-06-02T03:21:15.955Z,41.40
2018-06-02T03:23:44.211Z,43.43
2018-06-02T03:26:12.459Z,46.00
2018-06-02T03:28:42.062Z,44.87
2018-06-02T03:31:10.585Z,43.57
2018-06-02T03:33:38.841Z,42.50
2018-06-02T03:36:08.590Z,43.13
2018-06-02T03:38:36.877Z,43.40
2018-06-02T03:41:05.107Z,43.70
2018-06-02T03:43:34.714Z,42.40
2018-06-02T03:46:03.257Z,45.63
2018-06-02T03:48:31.491Z,41.37
2018-06-02T03:50:59.751Z,44.83
2018-06-02T03:53:29.358Z,47.60
2018-06-02T03:55:58.243Z,45.10
2018-06-02T03:58:26.496Z,44.10
2018-06-02T04:00:55.886Z,45.60
2018-06-02T04:03:24.768Z,318.30
2018-06-02T04:05:54.507Z,53.97
2018-06-02T04:08:24.283Z,46.40
2018-06-02T04:10:53.909Z,49.07
2018-06-02T04:13:23.154Z,44.87
2018-06-02T04:15:51.474Z,49.07
2018-06-02T04:18:20.473Z,44.70
2018-06-02T04:20:48.741Z,45.07
2018-06-02T04:23:16.992Z,47.77
2018-06-02T04:25:45.265Z,51.33
2018-06-02T04:28:15.005Z,48.13
2018-06-02T04:30:43.272Z,46.97
2018-06-02T04:33:11.510Z,47.00
2018-06-02T04:35:39.742Z,45.27
2018-06-02T04:38:09.521Z,47.37
2018-06-02T04:40:37.791Z,51.57
2018-06-02T04:43:06.047Z,49.00
2018-06-02T04:45:34.286Z,48.43
2018-06-02T04:48:03.899Z,47.50
2018-06-02T04:50:32.774Z,47.43
2018-06-02T04:53:01.011Z,51.07
2018-06-02T04:55:30.643Z,50.93
2018-06-02T04:57:58.789Z,53.10
2018-06-02T05:00:27.444Z,52.67
2018-06-02T05:02:57.221Z,54.60
2018-06-02T05:05:25.490Z,57.33
2018-06-02T05:07:53.722Z,54.20
2018-06-02T05:10:23.118Z,53.90
2018-06-02T05:12:51.374Z,61.33
2018-06-02T05:15:19.619Z,59.40
2018-06-02T05:17:47.875Z,57.20
2018-06-02T05:20:16.140Z,60.57
2018-06-02T05:22:45.728Z,62.87
2018-06-02T05:25:13.862Z,58.70
2018-06-02T05:27:43.639Z,58.20
2018-06-02T05:30:11.879Z,61.83
2018-06-02T05:32:40.135Z,55.83
2018-06-02T05:35:08.414Z,55.70
2018-06-02T05:37:37.038Z,55.27
2018-06-02T05:40:06.060Z,51.70
2018-06-02T05:42:34.329Z,54.60
2018-06-02T05:45:02.583Z,57.40
2018-06-02T05:47:31.588Z,52.30
2018-06-02T05:50:00.630Z,56.67
2018-06-02T05:52:28.891Z,57.30
2018-06-02T05:54:57.929Z,53.87
2018-06-02T05:57:26.931Z,57.10
2018-06-02T05:59:56.535Z,56.90
2018-06-02T06:02:25.783Z,57.53
2018-06-02T06:04:55.183Z,55.43
2018-06-02T06:07:23.443Z,56.93
2018-06-02T06:09:51.679Z,61.70
2018-06-02T06:12:19.939Z,58.67
2018-06-02T06:14:48.202Z,59.80
2018-06-02T06:17:16.462Z,56.63
2018-06-02T06:19:46.074Z,57.13
2018-06-02T06:22:14.985Z,56.13
2018-06-02T06:24:44.378Z,60.00
2018-06-02T06:27:12.635Z,56.30
2018-06-02T06:29:42.265Z,59.03
2018-06-02T06:32:10.767Z,56.57
2018-06-02T06:34:39.026Z,56.87
2018-06-02T06:37:08.790Z,60.77
2018-06-02T06:39:37.050Z,57.80
2018-06-02T06:42:05.301Z,58.47
2018-06-02T06:44:33.633Z,54.00
2018-06-02T06:47:01.814Z,56.13
2018-06-02T06:49:30.079Z,52.20
2018-06-02T06:51:59.480Z,53.13
2018-06-02T06:54:27.747Z,46.97
2018-06-02T06:56:56.634Z,42.27
2018-06-02T06:59:26.243Z,45.13
2018-06-02T07:01:54.393Z,43.50
2018-06-02T07:04:22.667Z,38.27
2018-06-02T07:06:52.276Z,38.27
2018-06-02T07:09:21.758Z,34.27
2018-06-02T07:11:51.174Z,33.77
2018-06-02T07:14:20.457Z,32.97
2018-06-02T07:16:48.715Z,29.67
2018-06-02T07:19:16.996Z,31.00
2018-06-02T07:21:45.261Z,28.27
2018-06-02T07:24:13.515Z,27.90
2018-06-02T07:26:41.799Z,25.73
2018-06-02T07:29:10.072Z,23.77
2018-06-02T07:31:39.089Z,20.60
2018-06-02T07:34:08.115Z,21.17
2018-06-02T07:36:37.503Z,20.97
2018-06-02T07:39:05.771Z,20.07
2018-06-02T07:41:34.039Z,18.33
2018-06-02T07:44:02.305Z,15.97
2018-06-02T07:46:30.578Z,16.80
2018-06-02T07:49:08.819Z,16.00
2018-06-02T07:51:38.210Z,16.80
2018-06-02T07:54:07.232Z,16.73
2018-06-02T07:56:36.842Z,17.70
2018-06-02T07:59:04.980Z,20.40
2018-06-02T08:01:33.238Z,19.03
2018-06-02T08:04:01.510Z,17.87
2018-06-02T08:06:30.915Z,17.90
2018-06-02T08:08:59.174Z,17.93
2018-06-02T08:11:27.434Z,16.90
2018-06-02T08:13:55.691Z,18.60
2018-06-02T08:16:25.302Z,18.20
2018-06-02T08:18:59.396Z,16.60
2018-06-02T08:21:27.654Z,18.20
2018-06-02T08:23:55.915Z,18.17
2018-06-02T08:26:24.175Z,17.47
2018-06-02T08:28:53.943Z,16.73
2018-06-02T08:31:22.217Z,20.57
2018-06-02T08:33:51.978Z,17.97
2018-06-02T08:36:20.930Z,16.07
2018-06-02T08:38:49.191Z,16.10
2018-06-02T08:41:18.208Z,17.10
2018-06-02T08:43:47.828Z,17.40
2018-06-02T08:46:17.467Z,15.50
2018-06-02T08:48:47.074Z,16.53
2018-06-02T08:51:16.723Z,17.50
2018-06-02T08:53:45.767Z,16.50
2018-06-02T08:56:14.467Z,18.30
2018-06-02T08:58:43.123Z,17.90
2018-06-02T09:01:11.383Z,16.57
2018-06-02T09:03:39.638Z,15.40
2018-06-02T09:06:09.417Z,15.90
2018-06-02T09:08:37.674Z,18.10
2018-06-02T09:11:05.949Z,16.70
2018-06-02T09:13:34.217Z,15.33
2018-06-02T09:16:03.837Z,14.67
2018-06-02T09:18:31.975Z,12.00
2018-06-02T09:21:00.234Z,10.53
2018-06-02T09:23:29.256Z,9.40
2018-06-02T09:26:00.030Z,9.90
2018-06-02T09:28:28.679Z,10.00
2018-06-02T09:30:56.943Z,9.93
2018-06-02T09:33:26.717Z,9.60
2018-06-02T09:35:54.967Z,9.30
2018-06-02T09:38:23.627Z,9.70
2018-06-02T09:40:51.901Z,9.43
2018-06-02T09:43:21.497Z,9.90
2018-06-02T09:45:49.649Z,9.37
2018-06-02T09:48:18.319Z,9.80
2018-06-02T09:50:46.562Z,9.77
2018-06-02T09:53:15.579Z,8.43
2018-06-02T09:55:43.827Z,8.80
2018-06-02T09:58:12.078Z,10.70
2018-06-02T10:00:40.335Z,10.37
2018-06-02T10:03:08.594Z,10.87
2018-06-02T10:05:36.850Z,10.43
2018-06-02T10:08:06.252Z,11.40
2018-06-02T10:10:34.541Z,12.40
2018-06-02T10:13:03.167Z,11.67
2018-06-02T10:15:31.422Z,11.10
2018-06-02T10:17:59.683Z,10.40
2018-06-02T10:20:28.710Z,9.93
2018-06-02T10:22:57.731Z,11.70
2018-06-02T10:25:27.135Z,11.03
2018-06-02T10:27:55.390Z,11.00
2018-06-02T10:30:23.643Z,9.87
2018-06-02T10:32:51.892Z,10.60
2018-06-02T10:35:21.957Z,10.93
2018-06-02T10:37:50.180Z,10.27
2018-06-02T10:40:19.571Z,9.00
2018-06-02T10:42:47.846Z,8.50
2018-06-02T10:45:16.851Z,7.97
2018-06-02T10:47:45.882Z,8.63
2018-06-02T10:50:15.483Z,7.60
2018-06-02T10:52:44.389Z,9.10
2018-06-02T10:55:12.643Z,9.43
2018-06-02T10:57:40.909Z,9.43
2018-06-02T11:00:09.163Z,9.87
2018-06-02T11:02:37.419Z,9.63
2018-06-02T11:05:07.179Z,9.73
2018-06-02T11:07:35.431Z,9.83
2018-06-02T11:10:03.694Z,10.13
2018-06-02T11:12:31.947Z,9.77
2018-06-02T11:15:01.542Z,9.10
2018-06-02T11:17:29.666Z,9.60
2018-06-02T11:19:57.923Z,8.30
2018-06-02T11:22:26.190Z,9.10
2018-06-02T11:24:54.435Z,9.00
2018-06-02T11:27:22.691Z,8.60
2018-06-02T11:29:52.080Z,8.87
2018-06-02T11:32:21.677Z,9.27
2018-06-02T11:34:50.221Z,8.70
2018-06-02T11:37:18.481Z,8.33
2018-06-02T11:39:48.239Z,8.93
2018-06-02T11:42:17.517Z,9.43
2018-06-02T11:44:46.577Z,8.00
2018-06-02T11:47:14.832Z,9.30
2018-06-02T11:49:44.448Z,10.73
2018-06-02T11:52:13.711Z,10.13
2018-06-02T11:54:43.124Z,9.10
2018-06-02T11:57:11.393Z,9.13
2018-06-02T11:59:41.158Z,9.20
2018-06-02T12:02:09.418Z,8.77
2018-06-02T12:04:37.687Z,9.10
2018-06-02T12:07:07.293Z,7.87
2018-06-02T12:09:35.811Z,8.60
2018-06-02T12:12:04.063Z,7.60
2018-06-02T12:14:32.315Z,6.67
2018-06-02T12:17:00.581Z,6.60
2018-06-02T12:19:28.850Z,6.40
2018-06-02T12:21:57.098Z,6.10
2018-06-02T12:24:25.354Z,6.07
2018-06-02T12:26:55.111Z,6.33
2018-06-02T12:29:23.364Z,6.17
2018-06-02T12:31:52.751Z,7.00
2018-06-02T12:34:20.999Z,5.60
2018-06-02T12:36:50.755Z,5.40
2018-06-02T12:39:19.003Z,8.27
2018-06-02T12:41:47.260Z,6.20
2018-06-02T12:44:15.520Z,5.63
2018-06-02T12:46:45.110Z,4.77
2018-06-02T12:49:13.631Z,5.13
2018-06-02T12:51:42.655Z,5.97
2018-06-02T12:54:11.738Z,5.30
2018-06-02T12:56:39.982Z,4.80
2018-06-02T12:59:08.246Z,4.50
2018-06-02T13:01:36.498Z,4.80
2018-06-02T13:04:04.747Z,4.40
2018-06-02T13:06:32.993Z,6.00
2018-06-02T13:09:01.238Z,4.50
2018-06-02T13:11:29.510Z,5.00
2018-06-02T13:13:59.254Z,5.00
2018-06-02T13:16:28.647Z,5.67
2018-06-02T13:18:56.894Z,5.00
2018-06-02T13:21:25.916Z,5.13
2018-06-02T13:23:55.518Z,4.47
2018-06-02T13:26:23.661Z,4.40
2018-06-02T13:28:53.258Z,4.87
2018-06-02T13:31:21.793Z,5.00
2018-06-02T13:33:51.542Z,5.47
2018-06-02T13:36:19.788Z,4.90
2018-06-02T13:38:48.035Z,5.03
2018-06-02T13:41:16.290Z,5.00
2018-06-02T13:43:44.557Z,5.43
2018-06-02T13:46:13.510Z,5.20
2018-06-02T13:48:42.159Z,5.70
2018-06-02T13:51:11.170Z,5.20
2018-06-02T13:53:40.570Z,5.70
2018-06-02T13:56:08.834Z,6.23
2018-06-02T13:58:37.083Z,6.13
2018-06-02T14:01:05.331Z,5.43
2018-06-02T14:03:33.584Z,5.80
2018-06-02T14:06:01.830Z,5.00
2018-06-02T14:08:30.096Z,5.13
2018-06-02T14:10:59.116Z,5.37
2018-06-02T14:13:28.130Z,5.60
2018-06-02T14:15:56.364Z,5.10
2018-06-02T14:18:25.391Z,5.30
2018-06-02T14:20:53.662Z,4.90
2018-06-02T14:23:21.913Z,5.47
2018-06-02T14:25:50.173Z,5.43
2018-06-02T14:28:19.936Z,5.87
2018-06-02T14:30:49.090Z,5.20
2018-06-02T14:33:18.425Z,5.10
2018-06-02T14:35:47.085Z,5.90
2018-06-02T14:38:15.353Z,5.43
2018-06-02T14:40:44.373Z,6.20
2018-06-02T14:43:13.402Z,6.17
2018-06-02T14:45:42.793Z,5.10
2018-06-02T14:49:51.699Z,5.10
2018-06-02T14:52:21.096Z,4.37
2018-06-02T14:54:49.347Z,5.40
2018-06-02T14:57:17.602Z,4.03
2018-06-02T14:59:45.856Z,5.40
2018-06-02T15:02:14.122Z,4.43
2018-06-02T15:04:45.019Z,5.00
2018-06-02T15:07:13.536Z,4.90
2018-06-02T15:09:42.483Z,4.50
2018-06-02T15:12:10.733Z,4.30
2018-06-02T15:14:40.343Z,4.90
2018-06-02T15:17:08.462Z,5.87
2018-06-02T15:19:37.129Z,6.00
2018-06-02T15:22:05.383Z,5.20
2018-06-02T15:24:34.415Z,5.20
2018-06-02T15:27:02.658Z,4.70
2018-06-02T15:29:30.907Z,5.03
2018-06-02T15:31:59.159Z,4.97
2018-06-02T15:34:27.419Z,5.00
2018-06-02T15:36:55.648Z,5.07
2018-06-02T15:39:23.908Z,4.30
2018-06-02T15:41:52.155Z,4.60
2018-06-02T15:44:20.412Z,5.07
2018-06-02T15:46:49.423Z,5.30
2018-06-02T15:49:18.655Z,5.03
2018-06-02T15:51:47.816Z,5.70
2018-06-02T15:54:16.063Z,5.90
2018-06-02T15:56:45.672Z,5.93
2018-06-02T15:59:14.195Z,5.83
2018-06-02T16:01:42.444Z,6.43
2018-06-02T16:04:10.694Z,5.97
2018-06-02T16:06:38.961Z,5.93
2018-06-02T16:09:07.198Z,6.07
2018-06-02T16:11:36.902Z,5.03
2018-06-02T16:14:05.158Z,6.60
2018-06-02T16:16:33.407Z,5.70
2018-06-02T16:19:01.666Z,6.93
2018-06-02T16:21:31.348Z,6.40
2018-06-02T16:23:59.614Z,7.17
2018-06-02T16:26:28.473Z,6.57
2018-06-02T16:28:57.870Z,6.47
2018-06-02T16:31:26.118Z,6.30
2018-06-02T16:33:54.363Z,6.07
2018-06-02T16:36:22.627Z,6.20
2018-06-02T16:38:52.223Z,4.50
2018-06-02T16:41:20.368Z,3.87
2018-06-02T16:43:50.124Z,3.83
2018-06-02T16:46:18.371Z,4.20
2018-06-02T16:48:46.618Z,3.83
2018-06-02T16:51:16.227Z,3.60
2018-06-02T16:53:44.342Z,3.10
2018-06-02T16:56:13.359Z,3.50
2018-06-02T16:58:42.753Z,3.50
2018-06-02T17:01:10.994Z,4.03
2018-06-02T17:03:39.243Z,3.23
2018-06-02T17:06:07.490Z,3.93
2018-06-02T17:08:37.086Z,4.30
2018-06-02T17:11:05.215Z,4.17
2018-06-02T17:13:34.232Z,5.07
2018-06-02T17:16:03.830Z,4.80
2018-06-02T17:18:31.952Z,4.37
2018-06-02T17:21:01.711Z,4.47
2018-06-02T17:23:30.717Z,5.30
2018-06-02T17:26:00.309Z,4.77
2018-06-02T17:28:28.449Z,5.30
2018-06-02T17:30:58.227Z,4.53
2018-06-02T17:33:26.477Z,5.07
2018-06-02T17:35:54.723Z,4.90
2018-06-02T17:38:24.489Z,4.70
2018-06-02T17:40:52.734Z,5.10
2018-06-02T17:43:22.334Z,5.03
2018-06-02T17:45:51.591Z,5.50
2018-06-02T17:48:20.975Z,5.70
2018-06-02T17:50:49.218Z,5.50
2018-06-02T17:53:18.829Z,6.17
2018-06-02T17:55:47.349Z,5.53
2018-06-02T17:58:15.609Z,5.17
2018-06-02T18:00:43.861Z,5.37
2018-06-02T18:03:13.625Z,5.30
2018-06-02T18:05:41.876Z,5.90
2018-06-02T18:08:10.114Z,5.10
2018-06-02T18:10:38.358Z,5.83
2018-06-02T18:13:06.637Z,4.23
2018-06-02T18:15:34.866Z,5.40
2018-06-02T18:18:03.111Z,4.90
2018-06-02T18:20:32.503Z,4.93
2018-06-02T18:23:00.751Z,5.30
2018-06-02T18:25:30.346Z,5.13
2018-06-02T18:27:58.872Z,5.50
2018-06-02T18:30:27.882Z,4.97
2018-06-02T18:32:56.910Z,5.23
2018-06-02T18:35:25.934Z,4.30
2018-06-02T18:37:55.310Z,4.30
2018-06-02T18:40:23.554Z,4.93
2018-06-02T18:42:53.313Z,4.97
2018-06-02T18:45:21.559Z,4.77
2018-06-02T18:47:49.806Z,5.27
2018-06-02T18:50:19.562Z,4.20
2018-06-02T18:52:47.821Z,4.10
2018-06-02T18:55:16.072Z,5.03
2018-06-02T18:57:44.322Z,5.23
2018-06-02T19:00:12.562Z,5.67
2018-06-02T19:02:42.373Z,6.10
2018-06-02T19:05:11.379Z,5.33
2018-06-02T19:07:40.403Z,6.20
2018-06-02T19:10:10.405Z,6.80
2018-06-02T19:12:38.670Z,6.13
2018-06-02T19:15:06.910Z,5.57
2018-06-02T19:17:35.159Z,6.17
2018-06-02T19:20:04.919Z,5.93
2018-06-02T19:22:33.213Z,5.53
2018-06-02T19:25:01.407Z,6.33
2018-06-02T19:27:29.654Z,5.90
2018-06-02T19:29:57.903Z,7.10
2018-06-02T19:32:27.662Z,5.70
2018-06-02T19:34:55.925Z,4.77
2018-06-02T19:37:24.173Z,5.90
2018-06-02T19:39:52.448Z,5.33
2018-06-02T19:42:22.198Z,5.70
2018-06-02T19:44:50.448Z,6.63
2018-06-02T19:47:18.694Z,6.80
2018-06-02T19:49:46.962Z,5.47
2018-06-02T19:52:15.212Z,5.60
2018-06-02T19:54:44.821Z,5.43
2018-06-02T19:57:12.965Z,6.47
2018-06-02T19:59:41.207Z,5.30
2018-06-02T20:02:10.966Z,6.10
2018-06-02T20:04:39.229Z,5.10
2018-06-02T20:07:07.491Z,5.70
2018-06-02T20:09:35.755Z,6.43
2018-06-02T20:12:05.503Z,5.80
2018-06-02T20:14:33.775Z,5.17
2018-06-02T20:17:02.023Z,6.40
2018-06-02T20:19:30.270Z,6.70
2018-06-02T20:21:58.530Z,6.53
2018-06-02T20:24:26.766Z,5.77
2018-06-02T20:26:55.023Z,6.30
2018-06-02T20:29:24.044Z,7.00
2018-06-02T20:31:52.294Z,6.63
2018-06-02T20:34:20.543Z,6.40
2018-06-02T20:36:49.213Z,6.00
2018-06-02T20:39:17.462Z,7.63
2018-06-02T20:41:45.720Z,7.40
2018-06-02T20:44:15.467Z,7.50
2018-06-02T20:46:43.717Z,6.43
2018-06-02T20:49:11.965Z,7.30
2018-06-02T20:51:41.351Z,6.70
2018-06-02T20:54:09.602Z,7.20
2018-06-02T20:56:39.201Z,7.33
2018-06-02T20:59:08.674Z,8.20
2018-06-02T21:01:37.584Z,7.50
2018-06-02T21:04:06.598Z,7.00
2018-06-02T21:06:35.987Z,7.83
2018-06-02T21:09:06.051Z,7.37
2018-06-02T21:11:34.301Z,7.47
2018-06-02T21:14:02.551Z,7.30
2018-06-02T21:16:30.803Z,8.90
2018-06-02T21:18:59.054Z,8.90
2018-06-02T21:21:27.302Z,7.03
2018-06-02T21:23:55.553Z,9.33
2018-06-02T21:26:23.807Z,8.80
2018-06-02T21:28:52.824Z,9.30
2018-06-02T21:31:21.056Z,8.50
2018-06-02T21:33:50.125Z,9.30
2018-06-02T21:36:19.843Z,10.00
2018-06-02T21:38:49.235Z,8.67
2018-06-02T21:41:18.273Z,9.40
2018-06-02T21:43:46.527Z,9.67
2018-06-02T21:46:14.812Z,8.77
2018-06-02T21:48:43.813Z,9.23
2018-06-02T21:51:12.831Z,9.13
2018-06-02T21:53:41.872Z,9.63
2018-06-02T21:56:10.131Z,9.47
2018-06-02T21:58:38.406Z,9.53
2018-06-02T22:01:06.698Z,9.63
2018-06-02T22:03:36.467Z,10.50
2018-06-02T22:06:04.723Z,10.50
2018-06-02T22:08:34.341Z,10.60
2018-06-02T22:11:02.923Z,11.40
2018-06-02T22:13:31.153Z,13.63
2018-06-02T22:15:59.412Z,14.50
2018-06-02T22:18:27.667Z,12.63
2018-06-02T22:20:57.453Z,13.00
2018-06-02T22:23:26.125Z,14.47
2018-06-02T22:25:54.393Z,16.40
2018-06-02T22:28:24.174Z,16.17
2018-06-02T22:30:53.610Z,16.10
2018-06-02T22:33:22.601Z,16.00
2018-06-02T22:35:50.858Z,16.60
2018-06-02T22:38:19.892Z,17.80
2018-06-02T22:40:48.928Z,17.10
2018-06-02T22:43:17.187Z,18.47
2018-06-02T22:45:46.798Z,19.20
2018-06-02T22:48:14.943Z,17.07
2018-06-02T22:50:43.595Z,18.40
2018-06-02T22:53:12.641Z,18.13
2018-06-02T22:55:40.896Z,19.27
2018-06-02T22:58:09.160Z,20.23
2018-06-02T23:00:37.415Z,20.33
2018-06-02T23:03:06.938Z,19.00
2018-06-02T23:05:35.350Z,21.73
2018-06-02T23:08:04.140Z,21.77
2018-06-02T23:10:32.154Z,21.73
2018-06-02T23:13:01.694Z,21.63
2018-06-02T23:15:30.473Z,23.07
2018-06-02T23:17:58.486Z,23.43
2018-06-02T23:20:26.511Z,23.07
2018-06-02T23:22:56.043Z,25.33
2018-06-02T23:25:24.054Z,26.07
2018-06-02T23:27:52.089Z,24.43
2018-06-02T23:30:20.102Z,23.10
2018-06-02T23:32:48.523Z,25.30
2018-06-02T23:35:17.324Z,25.80
2018-06-02T23:37:45.753Z,26.00
2018-06-02T23:40:13.774Z,24.80
2018-06-02T23:42:41.796Z,26.63
2018-06-02T23:45:09.817Z,27.43
2018-06-02T23:47:39.203Z,27.70
2018-06-02T23:50:07.141Z,29.20
2018-06-02T23:52:35.936Z,27.63
2018-06-02T23:55:03.967Z,27.57
2018-06-02T23:57:31.990Z,28.80
